NK57 weather

Ross Heliport
Niagara Falls, New York, United States

Public forecast

Using degrees Fahrenheit for public forecast. Weather courtesy of forecast.io.

Closest aviation weather report (METAR) to Ross Heliport

Closest report is Niagara Falls International Airport, 0.9 nm (1.6 km) SSW. Retrieved 2020/08/08 09:53 UTC (2 hours ago):

KIAG 080953Z AUTO 00000KT 10SM SCT055 BKN070 17/14 A3015 RMK AO2 SLP208 T01670144

Closest aviation forecast (TAF) to Ross Heliport

Closest forecast is Niagara Falls International Airport, 0.9 nm (1.6 km) SSW. Retrieved 2020/08/08 06:22 UTC (5 hours ago):

TAF KIAG 080520Z 0806/0906 VRB03KT P6SM SCT070 FM081700 24006KT P6SM SCT070 FM090200 20005KT P6SM SKC